Martell, California
Current Conditions -  °F | °C
As of 6:15 PM on Friday 19 Dec 2014 (Local Time) from KPVF Reporting Station
Scattered Clouds Scattered Clouds  
Wind Chill: 41°   Ceiling: Unl
Heat Index: 45°   Visibility: 7mi
Dew Point: 45°   Wind: 6mph
Humidity: 100%   Direction: 140°SE
Pressure: 30.17"   Gusts: NA
Location:  38.37°N, 120.79°W
Report Text: KPVF 200215Z AUTO 14005KT 7SM SCT029 07/07 A3017 RMK AO1
Loading
Personal Weather Stations






























Interactive Weather Map New forecast layout! Learn more

10-Day Weather Forecast

Advertisements
Track Severe Weather on mobile